createdAt,value
2022-08-01T00:00:45.495Z,19.00
2022-08-01T00:03:12.529Z,19.06
2022-08-01T00:05:39.664Z,19.02
2022-08-01T00:08:06.890Z,19.06
2022-08-01T00:10:33.696Z,18.98
2022-08-01T00:13:05.413Z,19.03
2022-08-01T00:15:33.422Z,19.08
2022-08-01T00:18:03.054Z,19.03
2022-08-01T00:20:30.087Z,19.00
2022-08-01T00:22:57.302Z,19.06
2022-08-01T00:25:33.462Z,19.00
2022-08-01T00:28:01.402Z,19.03
2022-08-01T00:30:28.158Z,19.03
2022-08-01T00:32:54.911Z,19.01
2022-08-01T00:35:21.897Z,19.01
2022-08-01T00:37:48.958Z,18.97
2022-08-01T00:40:16.962Z,18.98
2022-08-01T00:42:44.128Z,18.97
2022-08-01T00:45:12.621Z,19.00
2022-08-01T00:47:40.504Z,18.98
2022-08-01T00:50:08.996Z,18.96
2022-08-01T00:52:40.405Z,18.91
2022-08-01T00:55:14.905Z,18.99
2022-08-01T00:58:02.427Z,18.98
2022-08-01T01:00:52.150Z,19.03
2022-08-01T01:03:23.821Z,18.90
2022-08-01T01:06:10.434Z,18.88
2022-08-01T01:08:48.797Z,18.92
2022-08-01T01:11:26.906Z,18.92
2022-08-01T01:14:01.172Z,18.91
2022-08-01T01:16:31.883Z,18.82
2022-08-01T01:19:05.864Z,18.85
2022-08-01T01:21:53.895Z,18.87
2022-08-01T01:24:57.365Z,18.87
2022-08-01T01:27:37.976Z,18.89
2022-08-01T01:30:05.946Z,18.88
2022-08-01T01:32:49.608Z,18.86
2022-08-01T01:35:27.009Z,18.81
2022-08-01T01:38:01.125Z,18.80
2022-08-01T01:40:30.708Z,18.73
2022-08-01T01:42:58.032Z,18.81
2022-08-01T01:45:26.652Z,18.73
2022-08-01T01:47:54.776Z,18.76
2022-08-01T01:50:24.655Z,18.76
2022-08-01T01:52:53.130Z,18.74
2022-08-01T01:55:21.175Z,18.75
2022-08-01T01:57:49.906Z,18.72
2022-08-01T02:00:17.751Z,18.71
2022-08-01T02:02:45.641Z,18.71
2022-08-01T02:05:21.568Z,18.65
2022-08-01T02:07:53.721Z,18.67
2022-08-01T02:10:28.626Z,18.63
2022-08-01T02:12:58.594Z,18.63
2022-08-01T02:15:27.422Z,18.64
2022-08-01T02:17:54.802Z,18.62
2022-08-01T02:20:21.818Z,18.64
2022-08-01T02:22:53.317Z,18.64
2022-08-01T02:26:10.015Z,18.63
2022-08-01T02:28:42.333Z,18.61
2022-08-01T02:31:15.271Z,18.68
2022-08-01T02:33:46.122Z,18.67
2022-08-01T02:36:30.961Z,18.63
2022-08-01T02:39:03.757Z,18.63
2022-08-01T02:41:32.909Z,18.60
2022-08-01T02:44:04.804Z,18.56
2022-08-01T02:46:39.623Z,18.50
2022-08-01T02:49:10.277Z,18.51
2022-08-01T02:51:40.097Z,18.47
2022-08-01T02:54:09.135Z,18.53
2022-08-01T02:56:37.626Z,18.53
2022-08-01T02:59:15.927Z,18.51
2022-08-01T03:01:47.193Z,18.53
2022-08-01T03:04:18.873Z,18.48
2022-08-01T03:06:47.328Z,18.43
2022-08-01T03:09:16.806Z,18.43
2022-08-01T03:11:45.507Z,18.48
2022-08-01T03:14:15.086Z,18.39
2022-08-01T03:16:45.768Z,18.51
2022-08-01T03:19:14.579Z,18.45
2022-08-01T03:21:44.325Z,18.45
2022-08-01T03:24:12.584Z,18.37
2022-08-01T03:26:40.976Z,18.47
2022-08-01T03:29:13.551Z,18.47
2022-08-01T03:31:45.111Z,18.42
2022-08-01T03:34:12.681Z,18.34
2022-08-01T03:36:50.046Z,18.20
2022-08-01T03:39:20.211Z,18.28
2022-08-01T03:41:56.899Z,18.28
2022-08-01T03:44:28.358Z,18.20
2022-08-01T03:47:02.125Z,18.15
2022-08-01T03:49:36.568Z,18.13
2022-08-01T03:52:08.149Z,18.11
2022-08-01T03:54:44.726Z,18.15
2022-08-01T03:57:35.190Z,18.14
2022-08-01T03:59:59.472Z,18.09
2022-08-01T04:02:27.857Z,18.20
2022-08-01T04:04:56.374Z,18.16
2022-08-01T04:07:30.541Z,18.25
2022-08-01T04:09:57.789Z,18.26
2022-08-01T04:12:24.752Z,18.17
2022-08-01T04:14:51.749Z,18.03
2022-08-01T04:17:18.850Z,17.88
2022-08-01T04:19:46.186Z,17.78
2022-08-01T04:22:15.291Z,17.76
2022-08-01T04:24:45.801Z,17.84
2022-08-01T04:27:49.953Z,17.95
2022-08-01T04:30:08.608Z,18.05
2022-08-01T04:32:38.359Z,18.11
2022-08-01T04:35:22.985Z,18.11
2022-08-01T04:37:59.838Z,18.12
2022-08-01T04:40:27.430Z,18.07
2022-08-01T04:42:54.631Z,18.17
2022-08-01T04:45:22.892Z,18.18
2022-08-01T04:47:50.778Z,18.34
2022-08-01T04:50:18.853Z,18.34
2022-08-01T04:52:45.644Z,18.27
2022-08-01T04:55:13.862Z,18.41
2022-08-01T04:57:44.040Z,18.36
2022-08-01T05:00:11.597Z,18.40
2022-08-01T05:02:38.903Z,18.52
2022-08-01T05:05:09.023Z,18.49
2022-08-01T05:07:44.863Z,18.39
2022-08-01T05:10:12.954Z,18.55
2022-08-01T05:12:40.818Z,19.42
2022-08-01T05:15:13.146Z,19.46
2022-08-01T05:17:45.299Z,19.36
2022-08-01T05:20:12.818Z,19.31
2022-08-01T05:22:40.103Z,19.33
2022-08-01T05:25:07.330Z,19.46
2022-08-01T05:27:39.223Z,19.64
2022-08-01T05:30:08.993Z,20.07
2022-08-01T05:32:36.346Z,20.04
2022-08-01T05:35:04.127Z,20.11
2022-08-01T05:37:30.893Z,20.00
2022-08-01T05:39:57.712Z,19.77
2022-08-01T05:42:24.627Z,19.50
2022-08-01T05:44:51.840Z,19.22
2022-08-01T05:47:19.257Z,19.25
2022-08-01T05:49:46.570Z,19.12
2022-08-01T05:52:13.771Z,19.03
2022-08-01T05:54:41.004Z,18.95
2022-08-01T05:57:07.760Z,18.97
2022-08-01T05:59:34.710Z,18.83
2022-08-01T06:02:01.624Z,18.81
2022-08-01T06:04:28.695Z,18.80
2022-08-01T06:06:55.687Z,18.94
2022-08-01T06:09:22.432Z,19.01
2022-08-01T06:11:49.341Z,19.14
2022-08-01T06:14:16.146Z,19.14
2022-08-01T06:16:42.961Z,19.18
2022-08-01T06:19:09.725Z,19.20
2022-08-01T06:21:36.597Z,19.14
2022-08-01T06:24:03.725Z,19.19
2022-08-01T06:26:30.566Z,19.19
2022-08-01T06:28:57.356Z,19.14
2022-08-01T06:31:24.090Z,19.09
2022-08-01T06:33:50.883Z,19.12
2022-08-01T06:36:17.651Z,19.24
2022-08-01T06:38:44.405Z,19.36
2022-08-01T06:41:11.077Z,19.55
2022-08-01T06:43:37.996Z,19.76
2022-08-01T06:46:05.377Z,19.98
2022-08-01T06:48:32.209Z,20.63
2022-08-01T06:51:12.702Z,21.88
2022-08-01T06:53:39.654Z,22.46
2022-08-01T06:56:08.033Z,22.22
2022-08-01T06:58:35.680Z,21.66
2022-08-01T07:01:06.908Z,21.31
2022-08-01T07:03:52.768Z,20.85
2022-08-01T07:06:21.550Z,20.50
2022-08-01T07:08:48.471Z,20.40
2022-08-01T07:11:15.229Z,20.37
2022-08-01T07:13:45.531Z,20.38
2022-08-01T07:16:16.879Z,20.53
2022-08-01T07:18:44.541Z,20.70
2022-08-01T07:21:38.389Z,20.95
2022-08-01T07:24:01.113Z,20.91
2022-08-01T07:26:31.104Z,20.83
2022-08-01T07:28:59.160Z,20.91
2022-08-01T07:31:32.261Z,20.94
2022-08-01T07:34:00.827Z,21.20
2022-08-01T07:36:28.817Z,21.22
2022-08-01T07:38:56.993Z,21.07
2022-08-01T07:41:45.594Z,21.06
2022-08-01T07:44:16.252Z,21.00
2022-08-01T07:46:43.450Z,20.93
2022-08-01T07:49:10.741Z,20.94
2022-08-01T07:51:39.219Z,21.13
2022-08-01T07:54:08.809Z,21.22
2022-08-01T07:56:36.482Z,21.54
2022-08-01T07:59:06.094Z,21.63
2022-08-01T08:01:36.250Z,21.88
2022-08-01T08:04:04.254Z,22.15
2022-08-01T08:06:37.590Z,22.29
2022-08-01T08:09:05.310Z,22.73
2022-08-01T08:11:32.836Z,23.02
2022-08-01T08:14:00.658Z,23.10
2022-08-01T08:16:31.658Z,23.56
2022-08-01T08:18:59.215Z,24.35
2022-08-01T08:21:26.670Z,25.19
2022-08-01T08:24:12.855Z,25.40
2022-08-01T08:26:40.670Z,25.02
2022-08-01T08:29:17.474Z,25.53
2022-08-01T08:31:51.837Z,25.30
2022-08-01T08:34:20.909Z,24.90
2022-08-01T08:36:50.640Z,24.82
2022-08-01T08:39:21.725Z,24.79
2022-08-01T08:41:50.504Z,24.78
2022-08-01T08:44:31.395Z,24.14
2022-08-01T08:47:03.220Z,23.82
2022-08-01T08:49:35.472Z,23.83
2022-08-01T08:52:12.476Z,23.88
2022-08-01T08:54:48.218Z,23.82
2022-08-01T08:57:23.868Z,23.61
2022-08-01T08:59:55.325Z,23.58
2022-08-01T09:02:28.156Z,24.00
2022-08-01T09:04:58.668Z,25.62
2022-08-01T09:07:31.554Z,26.01
2022-08-01T09:10:01.779Z,25.56
2022-08-01T09:12:29.001Z,24.87
2022-08-01T09:14:58.519Z,24.15
2022-08-01T09:17:25.619Z,23.85
2022-08-01T09:19:59.121Z,23.91
2022-08-01T09:22:34.676Z,23.84
2022-08-01T09:25:06.951Z,23.61
2022-08-01T09:28:12.159Z,23.65
2022-08-01T09:30:42.335Z,23.87
2022-08-01T09:33:18.214Z,24.11
2022-08-01T09:35:57.070Z,24.24
2022-08-01T09:38:27.683Z,24.29
2022-08-01T09:40:59.744Z,23.83
2022-08-01T09:43:32.028Z,23.35
2022-08-01T09:46:00.978Z,23.41
2022-08-01T09:48:29.523Z,23.34
2022-08-01T09:51:07.299Z,23.04
2022-08-01T09:53:52.091Z,23.36
2022-08-01T09:56:22.114Z,23.29
2022-08-01T09:59:04.542Z,22.97
2022-08-01T10:01:44.871Z,22.99
2022-08-01T10:04:15.481Z,23.07
2022-08-01T10:06:48.364Z,23.10
2022-08-01T10:09:36.027Z,22.78
2022-08-01T10:12:15.408Z,22.77
2022-08-01T10:14:46.795Z,23.05
2022-08-01T10:17:22.654Z,23.10
2022-08-01T10:19:52.269Z,22.75
2022-08-01T10:22:25.590Z,22.21
2022-08-01T10:25:06.097Z,22.34
2022-08-01T10:27:44.979Z,22.62
2022-08-01T10:30:23.036Z,23.09
2022-08-01T10:33:51.392Z,23.52
2022-08-01T10:36:25.436Z,23.58
2022-08-01T10:38:55.001Z,23.72
2022-08-01T10:41:22.782Z,23.82
2022-08-01T10:43:49.687Z,23.65
2022-08-01T10:46:21.511Z,23.06
2022-08-01T10:49:06.129Z,23.24
2022-08-01T10:51:52.966Z,23.24
2022-08-01T10:54:25.924Z,23.06
2022-08-01T10:56:56.457Z,23.06
2022-08-01T10:59:49.475Z,23.34
2022-08-01T11:02:32.043Z,23.47
2022-08-01T11:05:20.569Z,23.17
2022-08-01T11:07:55.708Z,22.92
2022-08-01T11:10:40.160Z,23.16
2022-08-01T11:13:12.313Z,23.50
2022-08-01T11:15:49.910Z,23.46
2022-08-01T11:18:32.728Z,23.37
2022-08-01T11:21:57.130Z,23.18
2022-08-01T11:23:54.927Z,22.93
2022-08-01T11:26:28.935Z,23.34
2022-08-01T11:29:22.671Z,23.65
2022-08-01T11:32:33.024Z,23.76
2022-08-01T11:35:12.245Z,23.26
2022-08-01T11:37:48.662Z,23.35
2022-08-01T11:40:25.170Z,23.37
2022-08-01T11:43:17.807Z,23.54
2022-08-01T11:45:49.556Z,23.80
2022-08-01T11:48:35.097Z,23.85
2022-08-01T11:51:03.072Z,23.86
2022-08-01T11:53:30.855Z,23.73
2022-08-01T11:55:59.422Z,23.69
2022-08-01T11:58:30.717Z,23.48
2022-08-01T12:00:59.646Z,23.31
2022-08-01T12:03:33.601Z,23.38
2022-08-01T12:06:01.189Z,23.65
2022-08-01T12:08:35.540Z,23.87
2022-08-01T12:11:04.527Z,23.75
2022-08-01T12:13:44.456Z,23.72
2022-08-01T12:16:12.566Z,23.32
2022-08-01T12:18:44.248Z,23.26
2022-08-01T12:21:13.840Z,23.06
2022-08-01T12:23:42.689Z,22.86
2022-08-01T12:26:28.626Z,23.05
2022-08-01T12:28:59.120Z,22.92
2022-08-01T12:31:35.988Z,22.65
2022-08-01T12:34:29.679Z,22.72
2022-08-01T12:37:03.855Z,22.99
2022-08-01T12:39:35.428Z,22.86
2022-08-01T12:42:02.503Z,22.98
2022-08-01T12:44:31.676Z,22.91
2022-08-01T12:46:59.438Z,22.81
2022-08-01T12:49:26.823Z,22.93
2022-08-01T12:51:57.223Z,22.93
2022-08-01T12:54:26.681Z,22.96
2022-08-01T12:56:58.175Z,23.12
2022-08-01T12:59:27.735Z,23.15
2022-08-01T13:01:59.451Z,23.43
2022-08-01T13:04:27.022Z,23.76
2022-08-01T13:06:57.460Z,23.90
2022-08-01T13:09:24.304Z,23.61
2022-08-01T13:12:02.857Z,23.23
2022-08-01T13:14:32.752Z,22.94
2022-08-01T13:16:59.665Z,23.09
2022-08-01T13:19:46.304Z,23.46
2022-08-01T13:22:14.000Z,23.62
2022-08-01T13:24:43.141Z,23.92
2022-08-01T13:27:26.051Z,24.09
2022-08-01T13:29:56.542Z,24.44
2022-08-01T13:32:29.770Z,24.45
2022-08-01T13:35:10.104Z,24.31
2022-08-01T13:37:39.026Z,24.39
2022-08-01T13:40:08.362Z,24.29
2022-08-01T13:42:36.063Z,24.45
2022-08-01T13:45:04.162Z,24.26
2022-08-01T13:48:04.184Z,23.95
2022-08-01T13:50:32.709Z,23.63
2022-08-01T13:52:59.603Z,23.56
2022-08-01T13:55:29.899Z,23.50
2022-08-01T13:58:00.965Z,23.45
2022-08-01T14:00:28.748Z,23.78
2022-08-01T14:02:55.709Z,23.95
2022-08-01T14:05:23.035Z,23.93
2022-08-01T14:07:50.150Z,23.99
2022-08-01T14:10:26.968Z,24.05
2022-08-01T14:12:56.819Z,23.93
2022-08-01T14:15:37.736Z,23.74
2022-08-01T14:18:10.048Z,23.71
2022-08-01T14:20:39.234Z,23.89
2022-08-01T14:23:06.381Z,23.97
2022-08-01T14:26:01.712Z,23.81
2022-08-01T14:28:25.245Z,23.36
2022-08-01T14:30:52.054Z,23.21
2022-08-01T14:33:18.776Z,23.40
2022-08-01T14:36:05.218Z,23.77
2022-08-01T14:38:34.368Z,23.86
2022-08-01T14:41:04.177Z,24.25
2022-08-01T14:43:33.641Z,24.59
2022-08-01T14:46:04.803Z,24.83
2022-08-01T14:48:32.791Z,24.60
2022-08-01T14:51:03.720Z,24.40
2022-08-01T14:53:31.489Z,23.95
2022-08-01T14:56:01.033Z,24.08
2022-08-01T14:58:27.833Z,24.12
2022-08-01T15:00:58.627Z,24.07
2022-08-01T15:03:26.609Z,23.91
2022-08-01T15:05:53.385Z,23.84
2022-08-01T15:08:20.244Z,23.87
2022-08-01T15:10:47.091Z,23.78
2022-08-01T15:13:14.039Z,23.88
2022-08-01T15:15:43.754Z,24.21
2022-08-01T15:18:10.669Z,24.33
2022-08-01T15:20:37.417Z,24.38
2022-08-01T15:23:04.541Z,24.35
2022-08-01T15:25:41.188Z,24.54
2022-08-01T15:28:12.680Z,24.28
2022-08-01T15:30:39.745Z,24.48
2022-08-01T15:33:06.784Z,24.60
2022-08-01T15:35:33.719Z,24.44
2022-08-01T15:38:02.182Z,24.47
2022-08-01T15:40:29.515Z,24.28
2022-08-01T15:42:56.459Z,24.06
2022-08-01T15:45:46.307Z,23.82
2022-08-01T15:48:10.454Z,23.77
2022-08-01T15:50:39.344Z,23.94
2022-08-01T15:53:07.322Z,23.91
2022-08-01T15:55:38.290Z,24.12
2022-08-01T15:58:06.031Z,24.39
2022-08-01T16:00:36.134Z,24.11
2022-08-01T16:03:07.130Z,23.90
2022-08-01T16:05:36.381Z,23.73
2022-08-01T16:08:06.484Z,23.64
2022-08-01T16:10:33.284Z,23.72
2022-08-01T16:13:00.302Z,23.56
2022-08-01T16:15:36.341Z,23.55
2022-08-01T16:18:05.655Z,23.70
2022-08-01T16:20:33.155Z,23.63
2022-08-01T16:23:00.001Z,23.60
2022-08-01T16:25:27.044Z,23.59
2022-08-01T16:27:53.841Z,23.54
2022-08-01T16:30:20.781Z,23.62
2022-08-01T16:32:51.415Z,23.60
2022-08-01T16:35:24.589Z,23.59
2022-08-01T16:37:59.490Z,23.63
2022-08-01T16:40:26.241Z,23.57
2022-08-01T16:42:53.243Z,23.66
2022-08-01T16:45:25.520Z,23.48
2022-08-01T16:47:53.007Z,23.39
2022-08-01T16:50:28.205Z,23.36
2022-08-01T16:52:56.123Z,23.43
2022-08-01T16:55:23.149Z,23.34
2022-08-01T16:57:51.374Z,23.39
2022-08-01T17:00:21.242Z,23.38
2022-08-01T17:02:49.834Z,23.38
2022-08-01T17:05:16.676Z,23.33
2022-08-01T17:07:43.813Z,23.34
2022-08-01T17:10:11.850Z,23.31
2022-08-01T17:12:39.540Z,23.13
2022-08-01T17:15:07.523Z,23.24
2022-08-01T17:17:34.366Z,23.28
2022-08-01T17:20:01.252Z,23.31
2022-08-01T17:22:28.223Z,23.39
2022-08-01T17:24:55.460Z,23.69
2022-08-01T17:27:22.280Z,23.86
2022-08-01T17:29:49.073Z,24.25
2022-08-01T17:32:15.851Z,24.59
2022-08-01T17:34:43.112Z,24.87
2022-08-01T17:37:10.845Z,25.14
2022-08-01T17:39:39.366Z,25.09
2022-08-01T17:42:07.432Z,24.88
2022-08-01T17:44:34.454Z,24.81
2022-08-01T17:47:01.305Z,25.01
2022-08-01T17:49:53.345Z,25.06
2022-08-01T17:52:15.042Z,24.93
2022-08-01T17:54:42.051Z,25.00
2022-08-01T17:57:10.470Z,24.80
2022-08-01T17:59:37.228Z,24.59
2022-08-01T18:02:04.388Z,24.52
2022-08-01T18:04:33.879Z,24.34
2022-08-01T18:07:01.751Z,24.24
2022-08-01T18:09:32.720Z,24.36
2022-08-01T18:12:02.086Z,24.38
2022-08-01T18:14:40.064Z,24.19
2022-08-01T18:17:11.290Z,24.24
2022-08-01T18:19:39.371Z,24.18
2022-08-01T18:22:25.721Z,24.02
2022-08-01T18:24:53.822Z,23.98
2022-08-01T18:27:20.600Z,24.11
2022-08-01T18:29:48.685Z,23.76
2022-08-01T18:32:15.992Z,23.40
2022-08-01T18:34:43.063Z,22.85
2022-08-01T18:37:12.251Z,22.32
2022-08-01T18:39:41.702Z,22.00
2022-08-01T18:42:10.688Z,21.82
2022-08-01T18:44:37.515Z,21.71
2022-08-01T18:47:05.209Z,21.51
2022-08-01T18:49:32.511Z,21.25
2022-08-01T18:51:59.394Z,21.13
2022-08-01T18:54:27.429Z,21.35
2022-08-01T18:56:54.316Z,21.37
2022-08-01T18:59:21.739Z,21.03
2022-08-01T19:01:48.672Z,20.84
2022-08-01T19:04:16.567Z,20.75
2022-08-01T19:07:03.606Z,20.63
2022-08-01T19:09:34.201Z,20.57
2022-08-01T19:12:01.153Z,20.43
2022-08-01T19:14:28.078Z,20.36
2022-08-01T19:16:56.458Z,20.29
2022-08-01T19:19:27.570Z,20.38
2022-08-01T19:21:55.210Z,20.35
2022-08-01T19:24:22.605Z,20.10
2022-08-01T19:26:57.185Z,19.98
2022-08-01T19:29:35.652Z,19.85
2022-08-01T19:32:05.691Z,19.70
2022-08-01T19:34:35.627Z,19.76
2022-08-01T19:37:03.694Z,19.65
2022-08-01T19:39:30.645Z,19.59
2022-08-01T19:41:59.717Z,19.42
2022-08-01T19:44:28.823Z,19.35
2022-08-01T19:46:55.717Z,19.24
2022-08-01T19:49:23.688Z,19.22
2022-08-01T19:51:59.956Z,19.12
2022-08-01T19:54:32.736Z,18.93
2022-08-01T19:57:02.305Z,18.85
2022-08-01T19:59:32.395Z,18.69
2022-08-01T20:02:00.097Z,18.63
2022-08-01T20:04:27.784Z,18.73
2022-08-01T20:06:54.968Z,18.73
2022-08-01T20:09:22.119Z,18.64
2022-08-01T20:11:51.203Z,18.61
2022-08-01T20:14:22.349Z,18.61
2022-08-01T20:16:53.835Z,18.44
2022-08-01T20:19:22.376Z,18.38
2022-08-01T20:22:02.787Z,18.37
2022-08-01T20:24:38.162Z,18.38
2022-08-01T20:27:39.111Z,18.28
2022-08-01T20:30:30.162Z,18.36
2022-08-01T20:32:59.866Z,18.08
2022-08-01T20:35:52.136Z,18.09
2022-08-01T20:38:16.405Z,17.89
2022-08-01T20:40:43.822Z,17.64
2022-08-01T20:43:12.380Z,17.53
2022-08-01T20:45:39.245Z,17.51
2022-08-01T20:48:08.018Z,17.42
2022-08-01T20:50:54.896Z,17.29
2022-08-01T20:53:23.901Z,17.18
2022-08-01T20:56:06.451Z,16.90
2022-08-01T20:58:55.307Z,16.87
2022-08-01T21:01:28.940Z,16.82
2022-08-01T21:04:09.115Z,16.86
2022-08-01T21:06:39.211Z,16.75
2022-08-01T21:09:07.590Z,16.87
2022-08-01T21:11:49.939Z,16.97
2022-08-01T21:14:21.647Z,16.85
2022-08-01T21:17:01.580Z,16.51
2022-08-01T21:19:30.400Z,16.47
2022-08-01T21:22:34.291Z,16.53
2022-08-01T21:25:07.185Z,16.47
2022-08-01T21:27:36.061Z,16.59
2022-08-01T21:30:11.771Z,16.42
2022-08-01T21:32:43.050Z,16.31
2022-08-01T21:35:16.378Z,16.65
2022-08-01T21:37:52.687Z,16.55
2022-08-01T21:40:25.400Z,16.32
2022-08-01T21:42:53.486Z,16.20
2022-08-01T21:45:23.457Z,16.06
2022-08-01T21:47:56.281Z,16.02
2022-08-01T21:50:24.781Z,16.04
2022-08-01T21:53:16.102Z,16.29
2022-08-01T21:56:14.489Z,16.42
2022-08-01T21:59:18.262Z,16.94
2022-08-01T22:02:09.277Z,17.04
2022-08-01T22:05:03.003Z,16.69
2022-08-01T22:07:36.074Z,16.36
2022-08-01T22:10:08.533Z,16.07
2022-08-01T22:12:38.854Z,16.17
2022-08-01T22:15:16.687Z,16.12
2022-08-01T22:17:47.679Z,16.08
2022-08-01T22:20:22.772Z,15.93
2022-08-01T22:22:52.549Z,16.08
2022-08-01T22:25:22.370Z,16.04
2022-08-01T22:28:06.265Z,15.95
2022-08-01T22:30:45.441Z,16.05
2022-08-01T22:33:16.588Z,15.90
2022-08-01T22:35:50.686Z,15.88
2022-08-01T22:38:27.251Z,15.82
2022-08-01T22:41:02.293Z,15.70
2022-08-01T22:43:57.720Z,15.88
2022-08-01T22:46:48.274Z,15.97
2022-08-01T22:49:38.181Z,15.82
2022-08-01T22:52:16.237Z,15.70
2022-08-01T22:55:09.823Z,15.76
2022-08-01T22:57:58.564Z,15.80
2022-08-01T23:00:31.892Z,15.71
2022-08-01T23:03:07.720Z,15.86
2022-08-01T23:05:42.082Z,15.70
2022-08-01T23:08:23.915Z,15.80
2022-08-01T23:10:52.648Z,15.85
2022-08-01T23:13:20.629Z,15.91
2022-08-01T23:15:52.293Z,15.84
2022-08-01T23:18:22.407Z,15.70
2022-08-01T23:20:51.375Z,15.60
2022-08-01T23:23:30.603Z,15.71
2022-08-01T23:26:15.525Z,15.64
2022-08-01T23:28:44.122Z,15.80
2022-08-01T23:31:11.695Z,15.77
2022-08-01T23:33:38.660Z,15.74
2022-08-01T23:36:05.944Z,15.80
2022-08-01T23:38:32.738Z,15.76
2022-08-01T23:41:07.941Z,15.79
2022-08-01T23:43:34.969Z,15.66
2022-08-01T23:46:05.647Z,15.59
2022-08-01T23:48:35.182Z,15.66
2022-08-01T23:51:02.718Z,15.76
2022-08-01T23:53:31.606Z,15.88
2022-08-01T23:56:01.028Z,15.67
2022-08-01T23:58:41.857Z,15.70
